Alleghany, CA (95910)

11:42 AM PDT on April 19, 2015 (GMT -0700)
MesoWest | | Change Station
CLOSE
Current Station
Personal Weather Station
Location: Emigrant Gap, CA
Elevation: 5671 ft
Nearby Weather Stations

Elev 5671 ft 39.31 °N, 120.54 °W | Updated 57 minutes ago

Clear
Clear
61 °F
Feels Like 61 °F
N
10
Wind Variable Wind from ENE
Gusts 20.0 mph

Today
High -- | Low -- °F
--% Chance of Precip.
Yesterday
High -- | Low -- °F
Precip. -- in
6:19 AM 7:44 PM
New Moon, 1% visible
Pressure 29.88 in
Visibility 10.0 miles
Clouds Clear
Dew Point 22 °F
Humidity 22%
Rainfall in
Snow Depth Not available.
UV 8 out of 12
Pollen 10.40 out of 12
Air Quality Not available.
Flu Activity Sporadic
METAR KBLU 191752Z AUTO VRB05KT 10SM CLR 19/M06 A3010 RMK AO2 SLP117 T01941061 10194 20117 55001

More Conditions Fewer Conditions

Pressure 29.88 in
Visibility 10.0 miles
Clouds Clear
Dew Point 22 °F
Humidity 22%
Rainfall in
Snow Depth Not available.
UV 8 out of 12
Pollen 10.40 out of 12
Air Quality Not available.
Flu Activity Sporadic
METAR KBLU 191752Z AUTO VRB05KT 10SM CLR 19/M06 A3010 RMK AO2 SLP117 T01941061 10194 20117 55001

More Conditions Fewer Conditions

10-Day Weather Forecast

Almanac

Astronomy

Apr. 19, 2015 Rise Set
Actual Time
Civil Twilight
Nautical Twilight
Astronomical Twilight
Moon
Length of Visible Light
Length of Day
Tomorrow will be .
, % of the Moon is Illuminated

Today's Extremes

State Highs State Lows

Community

WunderPhotos

Upload Photos

1,814,908 photos uploaded!

WunderBlogs® & News

Nearby

Air Quality

  Air Quality AQ Index Pollutant
Not available.

Snow Depth

Station Depth Elevation

Earthquake Activity

City Distance Mag. Time & Date
Minimum magnitude displayed is 2.5.

Coastal Water Temperatures

Place Temperature

Stations

Nearby Weather Stations

Station Location Temp. Windchill Dew Point Humidity Wind Precip. Elev Updated Type